Aviation Digital Data Service (ADDS)

Output produced by METARs form (1631 UTC 23 February 2017)
found at http://aviationweather.gov/adds/metars/
 
KMIV 231146Z 2312/2412 VRB03KT 1/2SM FG VV002 
     FM231400 22004KT 2SM BR BKN006 
     FM231600 23006KT P6SM BKN025 
     FM231800 18006KT P6SM SCT040 
     FM240700 VRB03KT 3SM BR BKN010